Time;durP1;ratioP1;P1;durP2;ratioP2;P2;SDS_P1;SDS_P2;PMS_P1;PMS_P2;Temp;Humidity;BMP_temperature;BMP_pressure;BME280_temperature;BME280_humidity;BME280_pressure;Samples;Min_cycle;Max_cycle;Signal;HPM_P1;HPM_P2
2024/02/25 00:01:15;;;;;;;1.47;0.90;;;5.00;1.00;;;;;;4989039;28;20198;-81
2024/02/25 00:03:42;;;;;;;1.93;0.87;;;4.80;1.00;;;;;;4982915;28;20297;-80
2024/02/25 00:06:09;;;;;;;3.00;1.90;;;4.70;1.00;;;;;;4984705;28;20285;-80
2024/02/25 00:08:37;;;;;;;2.00;0.70;;;4.70;1.00;;;;;;4991602;28;20725;-80
2024/02/25 00:11:04;;;;;;;2.20;0.77;;;4.60;1.00;;;;;;4985193;28;20334;-80
2024/02/25 00:13:31;;;;;;;1.63;1.27;;;4.50;1.00;;;;;;4988981;28;20212;-79
2024/02/25 00:15:58;;;;;;;1.47;0.90;;;4.50;1.00;;;;;;4985936;28;20197;-79
2024/02/25 00:18:24;;;;;;;1.57;1.00;;;4.30;1.00;;;;;;4984835;28;20293;-80
2024/02/25 00:20:51;;;;;;;3.27;0.93;;;4.30;2.80;;;;;;4991073;28;20638;-79
2024/02/25 00:23:18;;;;;;;1.70;1.03;;;4.30;47.20;;;;;;4990852;28;20889;-81
2024/02/25 00:25:46;;;;;;;1.30;1.20;;;4.30;99.90;;;;;;4990345;28;20230;-80
2024/02/25 00:28:13;;;;;;;1.63;1.10;;;4.20;99.90;;;;;;4990535;28;20236;-81
2024/02/25 00:30:40;;;;;;;2.23;1.03;;;4.10;99.90;;;;;;4989875;28;20308;-82
2024/02/25 00:33:06;;;;;;;1.87;1.17;;;4.20;99.90;;;;;;4993645;28;20197;-82
2024/02/25 00:35:33;;;;;;;1.20;1.10;;;4.00;99.90;;;;;;4991650;28;20206;-82
2024/02/25 00:38:00;;;;;;;2.33;1.03;;;4.00;99.90;;;;;;4993204;28;20227;-82
2024/02/25 00:40:27;;;;;;;3.10;1.07;;;3.90;99.90;;;;;;4994240;28;20227;-81
2024/02/25 00:42:55;;;;;;;1.90;1.33;;;4.10;1.00;;;;;;4996259;28;20236;-82
2024/02/25 00:45:22;;;;;;;2.47;1.67;;;3.80;1.00;;;;;;4997006;28;20265;-81
2024/02/25 00:47:49;;;;;;;2.17;1.73;;;3.70;1.00;;;;;;4995639;28;20205;-81
2024/02/25 00:50:16;;;;;;;3.10;1.73;;;3.70;1.00;;;;;;4997242;28;20316;-82
2024/02/25 00:52:42;;;;;;;2.30;1.13;;;3.80;1.00;;;;;;4996912;28;20201;-79
2024/02/25 00:55:10;;;;;;;1.33;1.03;;;3.60;1.00;;;;;;4997036;28;20652;-80
2024/02/25 00:57:38;;;;;;;3.37;1.20;;;3.60;1.00;;;;;;4996409;28;20770;-80
2024/02/25 01:00:07;;;;;;;6.00;1.87;;;3.70;1.00;;;;;;4986969;28;20221;-80
2024/02/25 01:02:34;;;;;;;2.23;1.30;;;3.80;1.00;;;;;;4982190;28;20212;-82
2024/02/25 01:05:02;;;;;;;1.40;1.30;;;3.70;1.00;;;;;;4984732;28;20649;-82
2024/02/25 01:07:29;;;;;;;2.47;1.30;;;4.10;1.00;;;;;;4992147;28;20285;-80
2024/02/25 01:09:55;;;;;;;1.50;0.93;;;3.90;1.00;;;;;;4984453;28;20312;-81
2024/02/25 01:12:22;;;;;;;3.30;1.40;;;3.90;1.00;;;;;;4982434;28;20220;-79
2024/02/25 01:14:49;;;;;;;6.63;2.37;;;4.00;1.00;;;;;;4985829;28;20236;-80
2024/02/25 01:17:17;;;;;;;2.97;1.50;;;3.90;1.00;;;;;;4985061;28;20307;-80
2024/02/25 01:19:44;;;;;;;3.43;1.43;;;3.90;1.00;;;;;;4987256;28;20222;-81
2024/02/25 01:22:11;;;;;;;2.53;1.60;;;4.20;1.00;;;;;;4991177;28;20668;-80
2024/02/25 01:24:38;;;;;;;2.10;1.30;;;4.10;1.00;;;;;;4986476;28;20245;-81
2024/02/25 01:27:05;;;;;;;3.70;1.93;;;4.10;1.00;;;;;;4989862;28;20211;-81
2024/02/25 01:29:32;;;;;;;1.83;1.33;;;3.90;1.00;;;;;;4988736;28;20324;-80
2024/02/25 01:31:59;;;;;;;2.73;1.13;;;4.40;1.00;;;;;;4994614;28;20228;-79
2024/02/25 01:34:27;;;;;;;3.60;1.20;;;4.50;1.00;;;;;;4990130;28;20637;-79
2024/02/25 01:36:55;;;;;;;3.97;2.00;;;4.50;1.00;;;;;;4991796;28;20201;-78
2024/02/25 01:39:22;;;;;;;2.13;1.40;;;4.50;1.00;;;;;;4991780;28;20288;-80
2024/02/25 01:41:50;;;;;;;2.87;1.30;;;4.40;1.00;;;;;;4992666;28;20240;-79
2024/02/25 01:44:18;;;;;;;1.93;1.33;;;4.50;99.90;;;;;;4993883;28;20577;-78
2024/02/25 01:46:45;;;;;;;2.50;0.90;;;4.50;99.90;;;;;;4988619;28;20201;-80
2024/02/25 01:49:13;;;;;;;3.13;1.43;;;4.40;99.90;;;;;;4996614;28;20217;-80
2024/02/25 01:51:42;;;;;;;2.90;1.73;;;4.40;99.90;;;;;;4995082;28;20243;-80
2024/02/25 01:54:10;;;;;;;2.03;1.30;;;4.40;99.90;;;;;;4995937;28;20641;-81
2024/02/25 01:56:38;;;;;;;2.10;0.90;;;4.40;99.90;;;;;;4995803;28;20291;-80
2024/02/25 01:59:05;;;;;;;2.40;1.03;;;4.50;99.90;;;;;;4978128;28;20231;-80
2024/02/25 02:01:35;;;;;;;1.40;1.00;;;4.50;99.90;;;;;;4979495;28;20585;-80
2024/02/25 02:04:02;;;;;;;2.37;1.80;;;4.60;99.90;;;;;;4986695;28;20208;-78
2024/02/25 02:06:30;;;;;;;3.17;1.63;;;4.50;99.90;;;;;;4985897;28;20209;-79
2024/02/25 02:08:59;;;;;;;1.63;1.30;;;4.50;99.90;;;;;;4983783;28;20719;-80
2024/02/25 02:11:27;;;;;;;1.90;1.10;;;4.50;99.90;;;;;;4986004;28;20234;-81
2024/02/25 02:13:55;;;;;;;3.07;1.00;;;4.50;99.90;;;;;;4988097;28;20205;-80
2024/02/25 02:16:24;;;;;;;1.57;1.10;;;4.60;99.90;;;;;;4986986;28;20676;-80
2024/02/25 02:18:51;;;;;;;4.53;1.80;;;4.40;99.90;;;;;;4985420;28;20607;-81
2024/02/25 02:21:20;;;;;;;3.20;0.97;;;4.60;99.90;;;;;;4984839;28;20304;-81
2024/02/25 02:23:47;;;;;;;1.67;1.20;;;4.70;19.10;;;;;;4986545;28;20206;-81
2024/02/25 02:26:14;;;;;;;1.07;0.90;;;4.60;21.90;;;;;;4990747;28;20652;-79
2024/02/25 02:28:41;;;;;;;1.93;1.20;;;4.70;1.00;;;;;;4990314;28;20567;-80
2024/02/25 02:31:08;;;;;;;1.07;1.00;;;4.60;1.00;;;;;;4988722;28;20264;-80
2024/02/25 02:33:38;;;;;;;1.37;1.10;;;4.60;1.00;;;;;;4984729;28;20209;-79
2024/02/25 02:36:06;;;;;;;1.03;0.90;;;4.50;1.00;;;;;;4991214;28;20288;-80
2024/02/25 02:38:34;;;;;;;1.93;0.90;;;4.70;1.00;;;;;;4989542;28;20232;-80
2024/02/25 02:41:01;;;;;;;3.53;1.10;;;4.70;1.00;;;;;;4983333;28;20312;-79
2024/02/25 02:43:28;;;;;;;1.77;1.00;;;4.70;1.00;;;;;;4992345;28;20243;-80
2024/02/25 02:45:55;;;;;;;1.10;0.80;;;4.70;1.00;;;;;;4987542;28;20299;-81
2024/02/25 02:48:21;;;;;;;2.20;0.80;;;4.60;1.00;;;;;;4994308;28;20722;-81
2024/02/25 02:50:48;;;;;;;0.60;0.60;;;4.60;1.00;;;;;;4994611;28;20236;-81
2024/02/25 02:53:15;;;;;;;0.83;0.70;;;4.30;1.00;;;;;;4995822;28;20212;-81
2024/02/25 02:55:43;;;;;;;1.53;1.03;;;4.20;99.90;;;;;;4995178;28;20296;-80
2024/02/25 02:58:10;;;;;;;0.70;0.70;;;4.30;4.50;;;;;;4995585;28;20307;-80
2024/02/25 03:00:37;;;;;;;1.73;0.93;;;4.50;1.00;;;;;;4988176;28;20236;-81
2024/02/25 03:03:04;;;;;;;1.37;0.80;;;4.40;1.00;;;;;;4978192;28;20301;-81
2024/02/25 03:05:31;;;;;;;1.07;1.03;;;4.30;1.00;;;;;;4985856;28;20216;-80
2024/02/25 03:07:58;;;;;;;1.10;0.93;;;4.40;1.00;;;;;;4982320;28;20625;-81
2024/02/25 03:10:25;;;;;;;1.13;0.87;;;4.30;10.20;;;;;;4980977;28;20305;-81
2024/02/25 03:12:53;;;;;;;2.63;0.83;;;4.30;35.70;;;;;;4982561;28;20702;-79
2024/02/25 03:15:20;;;;;;;1.13;1.03;;;4.30;90.20;;;;;;4982495;28;20269;-78
2024/02/25 03:17:47;;;;;;;1.10;1.00;;;4.10;99.90;;;;;;4982539;28;20237;-80
2024/02/25 03:20:14;;;;;;;2.00;0.80;;;3.90;99.90;;;;;;4985216;28;20264;-78
2024/02/25 03:22:41;;;;;;;1.53;0.80;;;3.80;1.00;;;;;;4983810;28;20213;-80
2024/02/25 03:25:09;;;;;;;1.20;0.80;;;3.80;1.00;;;;;;4984962;28;20265;-81
2024/02/25 03:27:37;;;;;;;1.23;1.00;;;3.90;1.00;;;;;;4985300;28;20206;-81
2024/02/25 03:30:08;;;;;;;3.07;0.93;;;3.90;1.00;;;;;;4991537;28;20229;-80
2024/02/25 03:32:35;;;;;;;1.40;0.70;;;3.80;1.00;;;;;;4990095;28;20265;-81
2024/02/25 03:35:02;;;;;;;2.20;1.13;;;3.90;1.00;;;;;;4989695;28;20453;-80
2024/02/25 03:37:29;;;;;;;2.53;0.87;;;3.90;1.00;;;;;;4993034;28;20208;-80
2024/02/25 03:39:55;;;;;;;1.53;0.87;;;3.90;1.00;;;;;;4994535;28;20296;-80
2024/02/25 03:42:22;;;;;;;2.87;0.80;;;3.90;1.00;;;;;;4992999;28;20296;-79
2024/02/25 03:44:49;;;;;;;3.63;1.00;;;3.90;1.00;;;;;;4990739;28;20291;-79
2024/02/25 03:47:18;;;;;;;2.33;1.10;;;4.00;1.00;;;;;;4998043;28;20197;-80
2024/02/25 03:49:45;;;;;;;2.40;0.80;;;4.00;1.00;;;;;;4996849;28;20220;-80
2024/02/25 03:52:12;;;;;;;1.90;0.77;;;3.90;1.00;;;;;;4998882;28;20659;-80
2024/02/25 03:54:39;;;;;;;2.20;1.00;;;3.80;1.00;;;;;;4991389;28;20210;-81
2024/02/25 03:57:06;;;;;;;1.23;0.90;;;3.70;1.00;;;;;;4982888;28;20198;-80
2024/02/25 03:59:33;;;;;;;1.03;0.93;;;3.70;1.00;;;;;;4988318;28;20664;-80
2024/02/25 04:02:00;;;;;;;2.00;0.70;;;3.70;1.00;;;;;;4997426;28;20675;-80
2024/02/25 04:04:28;;;;;;;1.27;0.80;;;3.80;1.00;;;;;;4997591;28;20232;-80
2024/02/25 04:06:55;;;;;;;3.30;0.97;;;3.80;1.00;;;;;;4990744;28;20219;-81
2024/02/25 04:09:23;;;;;;;1.23;0.90;;;3.80;1.00;;;;;;4982502;28;20217;-81
2024/02/25 04:11:50;;;;;;;2.30;1.00;;;3.80;1.00;;;;;;4985410;28;20204;-79
2024/02/25 04:14:17;;;;;;;1.30;1.00;;;3.90;1.00;;;;;;4984128;28;20225;-79
2024/02/25 04:16:44;;;;;;;1.43;1.20;;;3.90;1.00;;;;;;4991073;28;20234;-80
2024/02/25 04:19:10;;;;;;;1.03;1.00;;;3.90;1.00;;;;;;4986518;28;20607;-81
2024/02/25 04:21:39;;;;;;;3.43;1.63;;;4.00;1.00;;;;;;4986646;28;20293;-80
2024/02/25 04:24:06;;;;;;;2.13;1.20;;;4.00;1.00;;;;;;4988934;28;20205;-80
2024/02/25 04:26:33;;;;;;;1.10;1.00;;;4.10;1.00;;;;;;4989400;28;20245;-80
2024/02/25 04:29:00;;;;;;;1.80;1.03;;;4.20;1.00;;;;;;4989326;28;20227;-80
2024/02/25 04:31:26;;;;;;;1.87;1.43;;;4.20;99.90;;;;;;4992192;28;20209;-80
2024/02/25 04:33:53;;;;;;;1.30;1.20;;;4.40;99.90;;;;;;4988927;28;20265;-80
2024/02/25 04:36:20;;;;;;;2.53;1.30;;;4.40;99.90;;;;;;4993702;28;20233;-80
2024/02/25 04:38:48;;;;;;;1.70;1.10;;;4.30;99.90;;;;;;4991012;28;20295;-80
2024/02/25 04:41:15;;;;;;;1.00;0.90;;;4.30;99.90;;;;;;5004479;28;20611;-79
2024/02/25 04:43:42;;;;;;;1.40;1.20;;;4.40;99.90;;;;;;5003585;28;20303;-79
2024/02/25 04:46:09;;;;;;;1.70;1.07;;;4.40;99.90;;;;;;5003652;28;20233;-78
2024/02/25 04:48:38;;;;;;;1.43;1.03;;;4.60;92.50;;;;;;5008014;28;20656;-79
2024/02/25 04:51:06;;;;;;;2.30;1.30;;;4.50;50.70;;;;;;4996868;28;20562;-79
2024/02/25 04:53:33;;;;;;;1.30;1.20;;;4.30;99.90;;;;;;5014097;28;20534;-79
2024/02/25 04:56:01;;;;;;;1.00;0.70;;;4.20;99.90;;;;;;5011460;28;20224;-79
2024/02/25 04:58:28;;;;;;;2.07;1.10;;;4.50;59.00;;;;;;5013401;28;20307;-79
2024/02/25 05:00:55;;;;;;;2.23;1.13;;;4.40;20.20;;;;;;5003308;28;20205;-79
2024/02/25 05:03:22;;;;;;;4.37;1.33;;;4.50;1.00;;;;;;5007195;28;20201;-78
2024/02/25 05:05:49;;;;;;;4.27;1.20;;;4.60;1.00;;;;;;5004585;28;20205;-77
2024/02/25 05:08:15;;;;;;;2.23;1.40;;;4.60;1.00;;;;;;5010523;28;20293;-79
2024/02/25 05:10:43;;;;;;;2.07;1.10;;;4.60;1.00;;;;;;4996335;28;20268;-79
2024/02/25 05:13:11;;;;;;;2.50;1.40;;;4.60;1.00;;;;;;4998139;28;20303;-78
2024/02/25 05:15:38;;;;;;;1.90;1.00;;;4.60;1.00;;;;;;5004292;28;20640;-77
2024/02/25 05:18:06;;;;;;;3.83;1.20;;;4.70;1.00;;;;;;4997826;28;20233;-79
2024/02/25 05:20:32;;;;;;;2.50;1.33;;;4.90;1.00;;;;;;5003316;28;20244;-78
2024/02/25 05:23:00;;;;;;;2.17;1.30;;;4.90;1.00;;;;;;5000164;28;20207;-79
2024/02/25 05:25:26;;;;;;;3.43;1.30;;;4.80;1.00;;;;;;4995784;28;20227;-77
2024/02/25 05:27:53;;;;;;;1.93;1.00;;;4.80;1.00;;;;;;5004866;28;20640;-79
2024/02/25 05:30:21;;;;;;;2.13;1.20;;;4.70;1.00;;;;;;5002444;28;20216;-77
2024/02/25 05:32:48;;;;;;;3.63;1.50;;;4.90;1.00;;;;;;5001493;28;20689;-79
2024/02/25 05:35:15;;;;;;;1.90;1.30;;;4.70;1.00;;;;;;5001292;28;20205;-79
2024/02/25 05:37:42;;;;;;;2.67;1.23;;;4.80;1.00;;;;;;5000951;28;20671;-78
2024/02/25 05:40:11;;;;;;;1.53;1.40;;;4.80;1.00;;;;;;5003107;28;20235;-79
2024/02/25 05:42:38;;;;;;;2.13;1.30;;;4.80;1.00;;;;;;5004409;28;20209;-79
2024/02/25 05:45:06;;;;;;;1.70;1.47;;;4.80;1.00;;;;;;4988432;28;20248;-79
2024/02/25 05:47:35;;;;;;;2.03;1.50;;;4.90;1.00;;;;;;4995925;28;20300;-79
2024/02/25 05:50:02;;;;;;;1.97;1.30;;;5.10;1.00;;;;;;5001039;28;20617;-78
2024/02/25 05:52:29;;;;;;;4.33;1.30;;;5.00;1.00;;;;;;5003505;28;20201;-78
2024/02/25 05:54:56;;;;;;;2.63;1.30;;;5.10;1.00;;;;;;4998473;28;20208;-78
2024/02/25 05:57:23;;;;;;;2.03;1.13;;;5.10;1.00;;;;;;5003353;28;20236;-79
2024/02/25 05:59:50;;;;;;;3.30;1.10;;;5.30;1.00;;;;;;4996723;28;20292;-77
2024/02/25 06:02:17;;;;;;;1.30;0.83;;;5.10;1.00;;;;;;5006283;28;20212;-78
2024/02/25 06:04:46;;;;;;;1.47;1.07;;;5.10;1.00;;;;;;5009216;28;20319;-79
2024/02/25 06:07:13;;;;;;;1.53;1.03;;;5.00;1.00;;;;;;5006808;28;20213;-78
2024/02/25 06:09:40;;;;;;;1.57;1.13;;;4.90;1.00;;;;;;5007214;28;20297;-79
2024/02/25 06:12:07;;;;;;;1.10;1.00;;;4.90;1.00;;;;;;4994328;28;20243;-79
2024/02/25 06:14:34;;;;;;;1.90;1.20;;;4.80;1.00;;;;;;5008731;28;20251;-77
2024/02/25 06:17:01;;;;;;;2.40;1.30;;;4.80;1.00;;;;;;5001500;28;20208;-77
2024/02/25 06:19:28;;;;;;;2.50;1.60;;;4.70;1.00;;;;;;5006437;28;20227;-79
2024/02/25 06:21:56;;;;;;;3.47;1.80;;;4.70;1.00;;;;;;5002846;28;20245;-79
2024/02/25 06:24:23;;;;;;;1.77;1.20;;;4.60;1.00;;;;;;5001796;28;20296;-78
2024/02/25 06:26:49;;;;;;;1.27;1.17;;;4.50;1.00;;;;;;4994595;28;20702;-79
2024/02/25 06:29:17;;;;;;;1.33;1.20;;;4.50;1.00;;;;;;4993432;28;20287;-79
2024/02/25 06:31:45;;;;;;;3.23;1.87;;;4.40;1.00;;;;;;4996842;28;20272;-79
2024/02/25 06:34:12;;;;;;;2.87;1.60;;;4.60;1.00;;;;;;5001185;28;20205;-79
2024/02/25 06:36:39;;;;;;;3.10;1.63;;;4.50;1.00;;;;;;5004273;28;20240;-79
2024/02/25 06:39:09;;;;;;;2.50;1.50;;;4.40;1.00;;;;;;5001461;28;20256;-78
2024/02/25 06:41:36;;;;;;;3.80;1.53;;;4.40;1.00;;;;;;5003593;28;20205;-77
2024/02/25 06:44:03;;;;;;;3.27;1.67;;;4.20;10.80;;;;;;5003215;28;20209;-79
2024/02/25 06:46:30;;;;;;;3.13;1.37;;;4.30;73.50;;;;;;5001910;28;20221;-79
2024/02/25 06:48:57;;;;;;;1.80;1.50;;;4.60;46.80;;;;;;5001244;28;20224;-79
2024/02/25 06:51:26;;;;;;;2.20;1.60;;;4.40;99.60;;;;;;4995007;28;20711;-77
2024/02/25 06:53:53;;;;;;;3.97;1.60;;;4.50;62.40;;;;;;5006438;28;20260;-77
2024/02/25 06:56:22;;;;;;;3.10;2.00;;;4.50;99.90;;;;;;5011452;28;20232;-77
2024/02/25 06:58:48;;;;;;;1.83;1.60;;;4.70;99.90;;;;;;4999205;28;20236;-79
2024/02/25 07:01:16;;;;;;;3.67;1.50;;;4.70;1.00;;;;;;4996139;28;20236;-79
2024/02/25 07:03:44;;;;;;;2.20;1.97;;;5.00;1.00;;;;;;5002058;28;20233;-79
2024/02/25 07:06:11;;;;;;;3.53;2.13;;;5.00;1.00;;;;;;4996193;28;20209;-79
2024/02/25 07:08:38;;;;;;;4.17;2.10;;;5.20;1.00;;;;;;5002481;28;20660;-77
2024/02/25 07:11:15;;;;;;;4.13;2.40;;;5.60;1.00;;;;;;5004889;28;20273;-79
2024/02/25 07:13:43;;;;;;;6.70;2.40;;;5.80;1.00;;;;;;4988298;28;20205;-78
2024/02/25 07:16:10;;;;;;;3.43;2.27;;;5.70;99.90;;;;;;5004838;28;20643;-77
2024/02/25 07:18:37;;;;;;;6.97;2.80;;;5.70;1.00;;;;;;5005312;28;20268;-79
2024/02/25 07:21:06;;;;;;;3.53;2.33;;;5.70;1.00;;;;;;5008186;28;20255;-78
2024/02/25 07:23:33;;;;;;;4.80;2.50;;;5.70;99.90;;;;;;5005388;28;20216;-77
2024/02/25 07:26:00;;;;;;;4.33;2.40;;;6.00;99.90;;;;;;5002590;28;20215;-78
2024/02/25 07:28:27;;;;;;;6.27;2.40;;;6.10;99.90;;;;;;5003070;28;20240;-78
2024/02/25 07:30:55;;;;;;;5.00;2.67;;;6.10;99.90;;;;;;5005176;28;20236;-79
2024/02/25 07:33:22;;;;;;;4.53;2.33;;;6.00;99.90;;;;;;5000045;28;20264;-80
2024/02/25 07:35:49;;;;;;;3.63;2.17;;;6.10;99.90;;;;;;4996848;28;20288;-78
2024/02/25 07:38:16;;;;;;;3.23;2.10;;;6.10;99.90;;;;;;5006589;28;20755;-79
2024/02/25 07:40:43;;;;;;;1.93;1.60;;;6.30;99.90;;;;;;5002823;28;20221;-79
2024/02/25 07:43:10;;;;;;;4.17;1.87;;;6.40;99.90;;;;;;5001316;28;20212;-79
2024/02/25 07:45:36;;;;;;;2.97;2.00;;;6.40;99.90;;;;;;5008939;28;20270;-78
2024/02/25 07:48:05;;;;;;;1.73;1.40;;;6.40;99.90;;;;;;5003819;28;20224;-78
2024/02/25 07:50:32;;;;;;;2.27;1.80;;;6.40;99.90;;;;;;5003404;28;20245;-79
2024/02/25 07:52:59;;;;;;;3.50;1.90;;;6.50;99.90;;;;;;5009206;28;20292;-79
2024/02/25 07:55:26;;;;;;;3.00;1.70;;;6.40;99.90;;;;;;5004067;28;20232;-78
2024/02/25 07:57:53;;;;;;;4.83;1.90;;;6.50;99.90;;;;;;4999938;28;20233;-80
2024/02/25 08:00:20;;;;;;;1.50;1.40;;;6.50;99.90;;;;;;5009761;28;20316;-79
2024/02/25 08:02:47;;;;;;;4.53;1.60;;;6.50;99.90;;;;;;5018366;28;20240;-79
2024/02/25 08:05:15;;;;;;;3.00;1.43;;;6.50;99.90;;;;;;5007328;28;20300;-80
2024/02/25 08:07:44;;;;;;;2.40;1.57;;;6.50;99.90;;;;;;5012978;28;20271;-80
2024/02/25 08:10:12;;;;;;;2.00;1.47;;;6.50;99.90;;;;;;5012369;28;20217;-79
2024/02/25 08:12:39;;;;;;;3.10;1.53;;;6.60;99.90;;;;;;5007557;28;20687;-79
2024/02/25 08:15:07;;;;;;;2.23;1.40;;;6.60;99.90;;;;;;5011332;28;20208;-78
2024/02/25 08:17:36;;;;;;;1.33;1.13;;;6.70;99.90;;;;;;5008505;28;20249;-77
2024/02/25 08:20:03;;;;;;;3.77;1.40;;;6.70;99.90;;;;;;5000285;28;20407;-78
2024/02/25 08:22:32;;;;;;;2.70;1.47;;;6.80;99.90;;;;;;5002698;28;20207;-80
2024/02/25 08:24:59;;;;;;;2.63;1.17;;;6.80;99.90;;;;;;5000248;28;20268;-80
2024/02/25 08:27:28;;;;;;;1.50;1.40;;;6.80;99.90;;;;;;5002629;28;20205;-79
2024/02/25 08:29:55;;;;;;;1.93;1.50;;;6.80;99.90;;;;;;4996929;28;20291;-78
2024/02/25 08:32:22;;;;;;;2.27;1.30;;;6.90;99.90;;;;;;4998023;28;20272;-79
2024/02/25 08:34:53;;;;;;;4.07;1.50;;;6.90;99.90;;;;;;4999087;28;20236;-80
2024/02/25 08:37:21;;;;;;;2.40;1.13;;;7.10;99.90;;;;;;5003750;28;20204;-78
2024/02/25 08:39:49;;;;;;;1.80;1.47;;;7.10;99.90;;;;;;4997626;28;20240;-78
2024/02/25 08:42:16;;;;;;;1.77;1.20;;;7.10;99.90;;;;;;5003139;28;20762;-78
2024/02/25 08:44:43;;;;;;;3.47;1.23;;;7.10;1.00;;;;;;5002170;28;20243;-79
2024/02/25 08:47:10;;;;;;;2.83;1.20;;;7.10;99.90;;;;;;5003198;28;20288;-80
2024/02/25 08:49:37;;;;;;;1.37;1.10;;;7.10;99.90;;;;;;5002119;28;20294;-77
2024/02/25 08:52:04;;;;;;;1.63;1.33;;;7.10;99.90;;;;;;5005136;28;20224;-80
2024/02/25 08:54:31;;;;;;;2.03;1.83;;;7.10;99.90;;;;;;4994942;28;20249;-79
2024/02/25 08:57:00;;;;;;;2.80;1.30;;;7.10;99.90;;;;;;5000664;28;20288;-80
2024/02/25 08:59:26;;;;;;;1.87;1.20;;;7.10;99.90;;;;;;4996296;28;20283;-80
2024/02/25 09:01:54;;;;;;;2.87;1.50;;;7.40;99.90;;;;;;5000053;28;20202;-78
2024/02/25 09:04:24;;;;;;;3.10;1.20;;;7.60;99.90;;;;;;5005936;28;20663;-80
2024/02/25 09:06:52;;;;;;;2.57;1.20;;;7.40;99.90;;;;;;5007839;28;20209;-77
2024/02/25 09:09:19;;;;;;;1.30;1.20;;;7.40;99.90;;;;;;4999707;28;20224;-79
2024/02/25 09:11:45;;;;;;;3.83;1.70;;;7.40;99.90;;;;;;4993609;28;20204;-79
2024/02/25 09:14:14;;;;;;;2.50;1.20;;;7.40;99.90;;;;;;5001827;28;20205;-77
2024/02/25 09:16:40;;;;;;;1.80;1.30;;;7.40;99.90;;;;;;4995080;28;20213;-80
2024/02/25 09:19:07;;;;;;;3.07;1.13;;;7.50;99.90;;;;;;4999005;28;20221;-79
2024/02/25 09:21:34;;;;;;;2.57;1.63;;;7.50;99.90;;;;;;4992242;28;20645;-78
2024/02/25 09:24:01;;;;;;;1.77;1.30;;;7.50;99.90;;;;;;5008857;28;20287;-78
2024/02/25 09:26:28;;;;;;;1.57;1.27;;;7.50;99.90;;;;;;4998523;28;20231;-80
2024/02/25 09:28:55;;;;;;;3.70;1.80;;;7.50;99.90;;;;;;5000164;28;20259;-80
2024/02/25 09:31:23;;;;;;;1.50;1.40;;;7.60;99.90;;;;;;4989008;28;20205;-78
2024/02/25 09:33:51;;;;;;;3.00;1.70;;;7.60;99.90;;;;;;5001117;28;20240;-78
2024/02/25 09:36:23;;;;;;;4.40;1.37;;;7.60;99.90;;;;;;5009175;28;20279;-78
2024/02/25 09:38:49;;;;;;;1.20;1.10;;;7.70;99.90;;;;;;4991801;28;20237;-78
2024/02/25 09:41:20;;;;;;;2.17;1.40;;;8.00;99.90;;;;;;4998211;28;20229;-79
2024/02/25 09:43:47;;;;;;;1.30;1.20;;;8.20;99.90;;;;;;4998634;28;20622;-77
2024/02/25 09:46:16;;;;;;;1.53;1.10;;;8.50;99.90;;;;;;5003234;28;20224;-80
2024/02/25 09:48:50;;;;;;;2.50;1.23;;;8.50;99.90;;;;;;5000689;28;20267;-79
2024/02/25 09:51:17;;;;;;;1.27;1.17;;;8.50;99.90;;;;;;4999980;28;20205;-79
2024/02/25 09:53:46;;;;;;;1.33;1.07;;;8.90;99.90;;;;;;5001393;28;20232;-80
2024/02/25 09:56:13;;;;;;;1.60;1.23;;;9.00;99.90;;;;;;5001745;28;20668;-80
2024/02/25 09:58:39;;;;;;;2.00;1.30;;;9.00;60.10;;;;;;4997080;28;20663;-80
2024/02/25 10:01:06;;;;;;;3.47;1.60;;;8.90;93.20;;;;;;4995145;28;20256;-79
2024/02/25 10:03:34;;;;;;;1.83;1.17;;;9.30;56.90;;;;;;5003402;28;20232;-77
2024/02/25 10:06:03;;;;;;;2.90;1.50;;;9.40;47.50;;;;;;4990213;28;20205;-80
2024/02/25 10:08:30;;;;;;;1.43;1.20;;;9.60;66.00;;;;;;4984490;28;20261;-79
2024/02/25 10:10:59;;;;;;;2.10;1.43;;;9.90;60.60;;;;;;4989267;28;20201;-81
2024/02/25 10:13:26;;;;;;;1.40;1.13;;;9.90;56.80;;;;;;4980952;28;20478;-80
2024/02/25 10:16:00;;;;;;;3.10;1.70;;;9.60;49.90;;;;;;4982627;28;20206;-80
2024/02/25 10:18:27;;;;;;;1.20;1.10;;;9.40;1.00;;;;;;4987693;28;20209;-79
2024/02/25 10:21:01;;;;;;;1.90;1.70;;;9.60;18.10;;;;;;4985671;28;20248;-80
2024/02/25 10:23:30;;;;;;;1.43;1.10;;;9.50;13.70;;;;;;4983134;28;20202;-81
2024/02/25 10:26:12;;;;;;;1.40;1.30;;;9.20;1.00;;;;;;4981711;28;20202;-81
2024/02/25 10:28:39;;;;;;;1.30;1.20;;;9.00;10.10;;;;;;4984223;28;20202;-81
2024/02/25 10:31:08;;;;;;;1.87;1.10;;;8.70;5.50;;;;;;4986624;28;20201;-81
2024/02/25 10:33:35;;;;;;;1.03;0.90;;;8.80;56.60;;;;;;4981109;28;20214;-80
2024/02/25 10:36:07;;;;;;;1.50;1.10;;;8.90;66.10;;;;;;4984190;28;20212;-80
2024/02/25 10:38:37;;;;;;;1.30;1.20;;;8.80;74.00;;;;;;4999309;28;20428;-81
2024/02/25 10:41:06;;;;;;;1.50;1.30;;;8.90;75.80;;;;;;5002336;28;20575;-80
2024/02/25 10:43:35;;;;;;;1.20;1.10;;;8.90;69.80;;;;;;4998892;28;20213;-80
2024/02/25 10:46:15;;;;;;;1.30;0.97;;;8.50;78.90;;;;;;5000539;28;20201;-81
2024/02/25 10:48:43;;;;;;;1.00;0.80;;;8.80;95.30;;;;;;4999515;28;20215;-81
2024/02/25 10:51:11;;;;;;;0.90;0.80;;;8.80;99.90;;;;;;4999911;28;20197;-81
2024/02/25 10:53:41;;;;;;;1.37;0.90;;;9.30;99.90;;;;;;4997759;28;20209;-79
2024/02/25 10:56:16;;;;;;;1.20;1.00;;;9.50;95.10;;;;;;5000112;28;20623;-80
2024/02/25 10:58:44;;;;;;;3.33;1.27;;;9.50;12.70;;;;;;4997959;28;20229;-80
2024/02/25 11:01:11;;;;;;;0.90;0.90;;;9.30;13.70;;;;;;4986709;28;20308;-80
2024/02/25 11:03:40;;;;;;;2.57;1.10;;;9.00;11.50;;;;;;4987464;28;20664;-80
2024/02/25 11:06:08;;;;;;;0.80;0.80;;;9.00;87.50;;;;;;4990564;28;20494;-81
2024/02/25 11:08:36;;;;;;;0.70;0.70;;;9.20;94.10;;;;;;4984585;28;20206;-81
2024/02/25 11:11:10;;;;;;;1.23;1.00;;;8.90;91.10;;;;;;4985673;28;20284;-80
2024/02/25 11:13:42;;;;;;;0.93;0.90;;;8.90;88.80;;;;;;4985074;28;20212;-80
2024/02/25 11:16:09;;;;;;;1.00;0.63;;;9.00;99.90;;;;;;4989206;28;20224;-81
2024/02/25 11:18:40;;;;;;;0.93;0.90;;;9.10;95.70;;;;;;4989881;28;20252;-79
2024/02/25 11:21:09;;;;;;;1.10;0.80;;;9.10;80.00;;;;;;4989770;28;20328;-78
2024/02/25 11:23:43;;;;;;;0.80;0.70;;;9.20;79.80;;;;;;4983078;28;20300;-80
2024/02/25 11:26:37;;;;;;;1.13;1.00;;;9.40;94.80;;;;;;4987589;28;20202;-80
2024/02/25 11:29:15;;;;;;;0.47;0.47;;;9.40;92.80;;;;;;4983640;28;20304;-79
2024/02/25 11:31:49;;;;;;;0.70;0.70;;;9.30;50.90;;;;;;4984644;28;20204;-80
2024/02/25 11:34:19;;;;;;;1.30;0.83;;;9.30;96.50;;;;;;4987249;28;20208;-80
2024/02/25 11:36:51;;;;;;;0.50;0.50;;;9.50;76.50;;;;;;4992479;28;20265;-81
2024/02/25 11:39:25;;;;;;;1.13;1.03;;;9.80;80.30;;;;;;4990673;28;20695;-80
2024/02/25 11:41:55;;;;;;;1.17;1.00;;;9.90;31.10;;;;;;4988685;28;20254;-80
2024/02/25 11:44:24;;;;;;;1.10;0.90;;;9.70;9.00;;;;;;4997202;28;20659;-79
2024/02/25 11:46:51;;;;;;;0.93;0.93;;;9.90;12.30;;;;;;4999308;28;20203;-80
2024/02/25 11:49:18;;;;;;;1.67;0.63;;;9.70;1.00;;;;;;4999803;28;20235;-80
2024/02/25 11:51:45;;;;;;;1.10;0.70;;;9.70;1.00;;;;;;4999053;28;20504;-80
2024/02/25 11:54:13;;;;;;;0.87;0.87;;;9.70;1.00;;;;;;4999836;28;20200;-79
2024/02/25 11:56:40;;;;;;;0.67;0.67;;;9.90;1.00;;;;;;4999505;28;20566;-79
2024/02/25 11:59:09;;;;;;;0.50;0.50;;;9.60;1.00;;;;;;4999858;28;20256;-81
2024/02/25 12:01:37;;;;;;;0.83;0.83;;;9.90;1.00;;;;;;4987546;28;20308;-79
2024/02/25 12:04:05;;;;;;;0.90;0.90;;;9.90;1.00;;;;;;4985025;28;20231;-80
2024/02/25 12:06:34;;;;;;;1.33;0.80;;;9.60;1.00;;;;;;4985518;28;20206;-81
2024/02/25 12:09:01;;;;;;;0.87;0.70;;;10.20;1.00;;;;;;4985289;28;20226;-81
2024/02/25 12:11:28;;;;;;;0.93;0.80;;;10.70;1.00;;;;;;4982435;28;20209;-80
2024/02/25 12:14:02;;;;;;;0.90;0.80;;;10.90;1.00;;;;;;4985025;28;20665;-80
2024/02/25 12:16:31;;;;;;;1.47;0.80;;;11.50;1.00;;;;;;4983376;28;20202;-81
2024/02/25 12:18:58;;;;;;;0.70;0.70;;;11.90;1.00;;;;;;4987725;28;20228;-80
2024/02/25 12:21:26;;;;;;;2.63;0.87;;;11.40;1.00;;;;;;4985741;28;20225;-79
2024/02/25 12:23:56;;;;;;;1.50;0.80;;;11.30;1.00;;;;;;4986214;28;20226;-81
2024/02/25 12:26:23;;;;;;;0.50;0.50;;;10.70;1.00;;;;;;4987540;28;20201;-80
2024/02/25 12:28:50;;;;;;;0.60;0.60;;;11.10;1.00;;;;;;4987222;28;20225;-81
2024/02/25 12:31:17;;;;;;;2.10;0.90;;;11.20;1.00;;;;;;4988680;28;20198;-80
2024/02/25 12:33:47;;;;;;;1.30;0.70;;;10.90;1.00;;;;;;4982303;28;20216;-81
2024/02/25 12:36:15;;;;;;;2.10;1.00;;;10.50;1.00;;;;;;4984990;28;20202;-81
2024/02/25 12:38:49;;;;;;;1.33;0.80;;;10.50;1.00;;;;;;4990188;28;20695;-81
2024/02/25 12:41:16;;;;;;;0.97;0.90;;;10.70;1.00;;;;;;4994204;28;20333;-81
2024/02/25 12:43:45;;;;;;;0.90;0.53;;;11.10;1.00;;;;;;4988331;28;20208;-81
2024/02/25 12:46:12;;;;;;;0.90;0.90;;;11.00;1.00;;;;;;4988533;28;20235;-81
2024/02/25 12:48:38;;;;;;;0.83;0.83;;;11.00;1.00;;;;;;4991822;28;20623;-80
2024/02/25 12:51:07;;;;;;;0.80;0.80;;;10.50;1.00;;;;;;5000489;28;20262;-80
2024/02/25 12:53:34;;;;;;;2.40;0.80;;;10.50;1.00;;;;;;4999670;28;20209;-80
2024/02/25 12:56:01;;;;;;;0.73;0.73;;;10.40;1.00;;;;;;5000600;28;20205;-81
2024/02/25 12:58:28;;;;;;;1.03;0.70;;;10.40;1.00;;;;;;4999425;28;20201;-80
2024/02/25 13:00:55;;;;;;;0.77;0.77;;;10.30;1.00;;;;;;4988564;28;20209;-81
2024/02/25 13:03:22;;;;;;;1.53;1.00;;;10.00;1.00;;;;;;4986229;28;20287;-80
2024/02/25 13:05:48;;;;;;;0.80;0.77;;;10.10;1.00;;;;;;4986189;28;20217;-79